createdAt,value
2019-03-19T00:00:04.794Z,2.20
2019-03-19T00:04:57.021Z,2.20
2019-03-19T00:09:49.510Z,2.30
2019-03-19T00:14:41.888Z,2.20
2019-03-19T00:19:34.596Z,2.20
2019-03-19T00:24:27.077Z,2.10
2019-03-19T00:29:19.823Z,2.20
2019-03-19T00:34:12.355Z,2.20
2019-03-19T00:39:06.925Z,2.30
2019-03-19T00:43:59.201Z,2.30
2019-03-19T00:48:51.395Z,2.20
2019-03-19T00:53:44.107Z,2.10
2019-03-19T00:58:36.634Z,2.20
2019-03-19T01:03:29.284Z,2.20
2019-03-19T01:08:21.770Z,2.30
2019-03-19T01:13:14.330Z,2.30
2019-03-19T01:18:06.933Z,2.30
2019-03-19T01:22:59.683Z,2.30
2019-03-19T01:27:52.218Z,2.30
2019-03-19T01:32:44.529Z,2.20
2019-03-19T01:37:36.921Z,2.00
2019-03-19T01:42:29.627Z,1.90
2019-03-19T01:47:21.992Z,1.80
2019-03-19T01:52:14.478Z,1.70
2019-03-19T01:57:07.193Z,1.60
2019-03-19T02:01:59.501Z,1.50
2019-03-19T02:06:51.790Z,1.40
2019-03-19T02:11:44.302Z,1.40
2019-03-19T02:16:36.839Z,1.40
2019-03-19T02:21:29.157Z,1.50
2019-03-19T02:26:21.562Z,1.50
2019-03-19T02:31:14.170Z,1.50
2019-03-19T02:36:06.814Z,1.60
2019-03-19T02:40:59.267Z,1.70
2019-03-19T02:45:51.760Z,1.70
2019-03-19T02:50:44.330Z,1.70
2019-03-19T02:55:36.860Z,1.60
2019-03-19T03:00:29.011Z,1.50
2019-03-19T03:05:21.889Z,1.50
2019-03-19T03:10:14.896Z,1.50
2019-03-19T03:15:10.019Z,1.50
2019-03-19T03:20:02.553Z,1.40
2019-03-19T03:24:54.903Z,1.50
2019-03-19T03:29:47.644Z,1.40
2019-03-19T03:34:40.057Z,1.50
2019-03-19T03:39:32.311Z,1.60
2019-03-19T03:44:25.101Z,1.70
2019-03-19T03:49:17.346Z,1.50
2019-03-19T03:54:09.913Z,1.40
2019-03-19T03:59:02.476Z,1.20
2019-03-19T04:03:55.141Z,1.00
2019-03-19T04:08:47.779Z,0.90
2019-03-19T04:13:40.159Z,0.80
2019-03-19T04:18:32.740Z,0.70
2019-03-19T04:23:25.422Z,0.60
2019-03-19T04:28:17.844Z,0.60
2019-03-19T04:33:10.134Z,0.50
2019-03-19T04:38:02.558Z,0.60
2019-03-19T04:42:55.049Z,0.50
2019-03-19T04:47:47.369Z,0.40
2019-03-19T04:52:39.868Z,0.40
2019-03-19T04:57:32.631Z,0.30
2019-03-19T05:02:24.955Z,0.30
2019-03-19T05:07:17.786Z,0.20
2019-03-19T05:12:10.338Z,0.20
2019-03-19T05:17:03.085Z,0.10
2019-03-19T05:21:55.514Z,0.00
2019-03-19T05:26:47.817Z,0.00
2019-03-19T05:31:40.548Z,-0.10
2019-03-19T05:36:32.968Z,-0.10
2019-03-19T05:41:25.258Z,-0.10
2019-03-19T05:46:18.012Z,-0.20
2019-03-19T05:51:10.617Z,-0.20
2019-03-19T05:56:03.401Z,-0.20
2019-03-19T06:00:57.098Z,-0.20
2019-03-19T06:05:49.805Z,-0.10
2019-03-19T06:10:42.275Z,-0.10
2019-03-19T06:15:34.873Z,0.00
2019-03-19T06:20:27.294Z,0.10
2019-03-19T06:25:25.481Z,0.30
2019-03-19T06:30:24.940Z,0.60
2019-03-19T06:35:17.692Z,0.90
2019-03-19T06:40:15.016Z,1.10
2019-03-19T06:45:10.756Z,1.60
2019-03-19T06:50:04.650Z,2.00
2019-03-19T06:54:57.315Z,2.40
2019-03-19T06:59:49.465Z,2.70
2019-03-19T07:04:42.170Z,3.10
2019-03-19T07:09:34.959Z,3.60
2019-03-19T07:14:27.481Z,4.10
2019-03-19T07:23:45.009Z,4.50
2019-03-19T07:28:37.482Z,6.10
2019-03-19T07:33:29.753Z,7.70
2019-03-19T07:38:22.501Z,9.70
2019-03-19T07:43:15.329Z,11.10
2019-03-19T07:48:07.733Z,12.90
2019-03-19T07:53:00.397Z,13.80
2019-03-19T07:57:53.250Z,14.70
2019-03-19T08:02:45.883Z,16.10
2019-03-19T08:07:38.471Z,17.20
2019-03-19T08:12:33.451Z,17.90
2019-03-19T08:17:25.114Z,18.40
2019-03-19T08:22:18.125Z,18.70
2019-03-19T08:27:10.681Z,19.60
2019-03-19T08:32:02.884Z,21.00
2019-03-19T08:36:55.667Z,21.00
2019-03-19T08:41:48.153Z,21.10
2019-03-19T08:46:40.495Z,21.30
2019-03-19T08:51:33.225Z,21.70
2019-03-19T08:56:25.981Z,21.80
2019-03-19T09:01:18.763Z,21.90
2019-03-19T09:06:11.227Z,23.00
2019-03-19T09:11:03.890Z,24.10
2019-03-19T09:15:56.635Z,24.30
2019-03-19T09:20:49.412Z,24.30
2019-03-19T09:25:41.789Z,24.40
2019-03-19T09:30:34.465Z,23.80
2019-03-19T09:35:26.737Z,23.30
2019-03-19T09:40:21.277Z,23.60
2019-03-19T09:45:15.317Z,24.70
2019-03-19T09:50:16.053Z,24.50
2019-03-19T09:55:12.755Z,24.10
2019-03-19T10:00:14.634Z,23.90
2019-03-19T10:05:06.678Z,23.90
2019-03-19T10:09:59.038Z,24.70
2019-03-19T10:14:51.428Z,25.20
2019-03-19T10:19:44.105Z,25.50
2019-03-19T10:24:36.691Z,26.40
2019-03-19T10:29:37.925Z,27.00
2019-03-19T10:34:22.806Z,28.10
2019-03-19T10:39:15.594Z,25.80
2019-03-19T10:44:08.135Z,22.60
2019-03-19T10:49:00.731Z,23.10
2019-03-19T10:53:53.448Z,23.90
2019-03-19T10:58:45.997Z,24.40
2019-03-19T11:03:38.161Z,25.20
2019-03-19T11:08:30.957Z,25.80
2019-03-19T11:13:23.856Z,25.90
2019-03-19T11:18:16.409Z,27.20
2019-03-19T11:23:08.985Z,27.00
2019-03-19T11:28:01.823Z,27.00
2019-03-19T11:32:54.463Z,26.40
2019-03-19T11:37:47.216Z,26.70
2019-03-19T11:42:39.906Z,27.00
2019-03-19T11:47:32.545Z,27.10
2019-03-19T11:52:25.122Z,26.20
2019-03-19T11:57:17.376Z,26.40
2019-03-19T12:02:10.020Z,26.70
2019-03-19T12:07:02.461Z,26.40
2019-03-19T12:11:54.976Z,26.60
2019-03-19T12:16:47.659Z,26.90
2019-03-19T12:21:40.217Z,27.30
2019-03-19T12:26:33.022Z,26.90
2019-03-19T12:31:25.433Z,26.80
2019-03-19T12:36:17.843Z,27.50
2019-03-19T12:41:10.409Z,27.40
2019-03-19T12:46:03.109Z,27.20
2019-03-19T12:50:55.373Z,27.50
2019-03-19T12:55:47.965Z,27.40
2019-03-19T13:00:40.414Z,26.70
2019-03-19T13:05:32.877Z,26.60
2019-03-19T13:10:25.872Z,27.00
2019-03-19T13:15:19.525Z,27.10
2019-03-19T13:20:20.187Z,27.00
2019-03-19T13:25:15.446Z,26.90
2019-03-19T13:30:21.615Z,26.90
2019-03-19T13:35:14.143Z,27.10
2019-03-19T13:40:10.045Z,27.20
2019-03-19T13:45:02.053Z,26.70
2019-03-19T13:49:54.794Z,26.70
2019-03-19T13:54:47.034Z,26.20
2019-03-19T13:59:39.570Z,25.80
2019-03-19T14:04:32.121Z,24.90
2019-03-19T14:09:24.795Z,24.50
2019-03-19T14:14:17.337Z,24.40
2019-03-19T14:19:09.930Z,23.90
2019-03-19T14:24:02.612Z,23.40
2019-03-19T14:28:55.129Z,23.40
2019-03-19T14:33:47.238Z,23.40
2019-03-19T14:38:47.020Z,22.70
2019-03-19T14:43:33.662Z,20.70
2019-03-19T14:48:26.429Z,19.20
2019-03-19T14:53:18.717Z,18.40
2019-03-19T14:58:10.821Z,17.80
2019-03-19T15:03:03.746Z,17.30
2019-03-19T15:07:56.328Z,16.90
2019-03-19T15:12:48.850Z,16.20
2019-03-19T15:17:41.452Z,15.90
2019-03-19T15:22:34.298Z,15.50
2019-03-19T15:27:26.809Z,15.10
2019-03-19T15:32:19.233Z,14.80
2019-03-19T15:37:11.719Z,14.40
2019-03-19T15:42:04.403Z,14.00
2019-03-19T15:46:56.885Z,13.70
2019-03-19T15:51:49.513Z,13.70
2019-03-19T15:56:42.177Z,13.60
2019-03-19T16:01:40.304Z,13.40
2019-03-19T16:06:28.897Z,13.20
2019-03-19T16:11:21.605Z,13.00
2019-03-19T16:16:14.520Z,12.90
2019-03-19T16:21:07.333Z,12.60
2019-03-19T16:25:59.950Z,12.50
2019-03-19T16:30:52.682Z,12.20
2019-03-19T16:35:45.441Z,12.10
2019-03-19T16:40:37.853Z,11.90
2019-03-19T16:45:30.261Z,11.80
2019-03-19T16:50:23.582Z,11.60
2019-03-19T16:55:17.381Z,11.50
2019-03-19T17:00:13.209Z,11.40
2019-03-19T17:05:08.312Z,11.30
2019-03-19T17:10:00.882Z,11.10
2019-03-19T17:14:53.191Z,10.90
2019-03-19T17:19:45.767Z,10.80
2019-03-19T17:24:38.304Z,10.60
2019-03-19T17:29:30.955Z,10.40
2019-03-19T17:34:23.636Z,10.10
2019-03-19T17:39:16.397Z,9.60
2019-03-19T17:44:08.705Z,9.00
2019-03-19T17:49:01.113Z,8.70
2019-03-19T17:53:59.072Z,8.40
2019-03-19T17:58:51.485Z,8.10
2019-03-19T18:03:43.861Z,7.90
2019-03-19T18:08:36.389Z,7.70
2019-03-19T18:13:29.102Z,7.60
2019-03-19T18:18:21.949Z,7.40
2019-03-19T18:23:14.264Z,7.30
2019-03-19T18:28:06.746Z,7.10
2019-03-19T18:32:59.337Z,6.80
2019-03-19T18:37:54.036Z,6.50
2019-03-19T18:42:46.405Z,6.20
2019-03-19T18:47:39.022Z,6.00
2019-03-19T18:52:31.702Z,5.80
2019-03-19T18:57:24.492Z,5.70
2019-03-19T19:02:16.825Z,5.50
2019-03-19T19:07:10.520Z,5.20
2019-03-19T19:12:03.216Z,4.90
2019-03-19T19:16:55.847Z,4.60
2019-03-19T19:21:48.209Z,4.50
2019-03-19T19:26:40.832Z,4.60
2019-03-19T19:31:33.492Z,4.40
2019-03-19T19:36:25.797Z,4.30
2019-03-19T19:41:18.629Z,4.10
2019-03-19T19:46:11.266Z,4.00
2019-03-19T19:51:03.863Z,3.90
2019-03-19T19:55:57.202Z,3.80
2019-03-19T20:00:49.633Z,3.60
2019-03-19T20:05:42.377Z,3.60
2019-03-19T20:10:34.504Z,3.50
2019-03-19T20:15:26.896Z,3.30
2019-03-19T20:20:27.931Z,3.20
2019-03-19T20:25:20.297Z,3.20
2019-03-19T20:30:18.558Z,3.00
2019-03-19T20:35:12.279Z,2.90
2019-03-19T20:40:07.608Z,2.90
2019-03-19T20:45:00.347Z,2.80
2019-03-19T20:49:52.960Z,2.80
2019-03-19T20:54:45.829Z,2.70
2019-03-19T20:59:38.832Z,2.60
2019-03-19T21:04:31.893Z,2.50
2019-03-19T21:09:24.452Z,2.50
2019-03-19T21:14:16.977Z,2.30
2019-03-19T21:19:09.457Z,2.20
2019-03-19T21:24:02.021Z,1.90
2019-03-19T21:28:54.545Z,1.80
2019-03-19T21:33:51.179Z,1.70
2019-03-19T21:38:40.847Z,1.70
2019-03-19T21:43:33.265Z,1.70
2019-03-19T21:48:25.418Z,1.70
2019-03-19T21:53:18.097Z,1.60
2019-03-19T21:58:10.710Z,1.60
2019-03-19T22:03:03.050Z,1.40
2019-03-19T22:07:55.620Z,1.30
2019-03-19T22:12:49.324Z,1.20
2019-03-19T22:17:42.406Z,1.10
2019-03-19T22:22:34.804Z,1.10
2019-03-19T22:27:27.382Z,1.20
2019-03-19T22:32:19.973Z,1.20
2019-03-19T22:37:12.673Z,1.20
2019-03-19T22:42:05.325Z,1.20
2019-03-19T22:46:57.935Z,1.10
2019-03-19T22:51:50.249Z,1.10
2019-03-19T22:56:42.641Z,0.90
2019-03-19T23:01:35.490Z,0.80
2019-03-19T23:06:27.949Z,0.80
2019-03-19T23:11:20.815Z,0.80
2019-03-19T23:16:13.292Z,0.70
2019-03-19T23:21:05.753Z,0.60
2019-03-19T23:25:58.341Z,0.50
2019-03-19T23:30:51.149Z,0.40
2019-03-19T23:35:43.626Z,0.40
2019-03-19T23:40:36.107Z,0.40
2019-03-19T23:45:28.599Z,0.50
2019-03-19T23:50:21.469Z,0.50
2019-03-19T23:55:13.646Z,0.40
